PWSweather.com
Personal Weather Stations
Station Observations
IONTARIO88
Lincoln, ON L0R

Lincoln, ON L0R

Lat: 43.1763563, Lon: -79.4719525

Elevation: 297

Station Type: Davis Vantage Pro 2 Plus

http://www.beamsvillewx.ca

High Low Average
Temperature 36.0°F2.2°C 29.5°F-1.4°C 32.5°F0.3°C
Dew Point 34.4°F1.3°C 27.7°F-2.4°C 30.9°F-0.6°C
Winds 14.0 mph 22.5 kmh 2.0 mph 3.2 kmh 8.0 mph E12.9 kmh E
Wind Gusts 26.0 mph41.8 kmh 5.0 mph8.0 kmh 16.0 mph25.7 kmh
Humidity 94% 93% 94%
Pressure 30.23 in1023.7 mb 29.73 in1006.8 mb -
Precipitation 0.76 in19.3 mm - -
Hour Temp Dew Point Humidity Winds Wind Gusts Pressure Precip Precip Rate Daily Precip Total
12:00 AM 29.5°F-1.4°C 28.0°F-2.2°C 94% 12.0 mph ENE19.3 kmh ENE 24.0 mph38.6 kmh 30.23 in1023.7 mb 0.04 in1.0 mm 0.00 in0.0 mm 0.04 in1.0 mm
12:15 AM 29.5°F-1.4°C 27.7°F-2.4°C 93% 12.0 mph E19.3 kmh E 22.0 mph35.4 kmh 30.23 in1023.7 mb 0.04 in1.0 mm 0.00 in0.0 mm 0.05 in1.3 mm
12:30 AM 29.5°F-1.4°C 27.7°F-2.4°C 93% 12.0 mph E19.3 kmh E 21.0 mph33.8 kmh 30.22 in1023.4 mb 0.03 in0.8 mm 0.00 in0.0 mm 0.05 in1.3 mm
12:45 AM 29.5°F-1.4°C 27.7°F-2.4°C 93% 14.0 mph ENE22.5 kmh ENE 26.0 mph41.8 kmh 30.21 in1023.0 mb 0.02 in0.5 mm 0.00 in0.0 mm 0.06 in1.5 mm
01:00 AM 29.7°F-1.3°C 27.9°F-2.3°C 93% 11.0 mph E17.7 kmh E 21.0 mph33.8 kmh 30.22 in1023.4 mb 0.02 in0.5 mm 0.00 in0.0 mm 0.06 in1.5 mm
01:15 AM 29.7°F-1.3°C 27.9°F-2.3°C 93% 11.0 mph E17.7 kmh E 23.0 mph37.0 kmh 30.20 in1022.7 mb 0.02 in0.5 mm 0.00 in0.0 mm 0.07 in1.8 mm
01:30 AM 29.7°F-1.3°C 27.9°F-2.3°C 93% 12.0 mph ENE19.3 kmh ENE 21.0 mph33.8 kmh 30.20 in1022.7 mb 0.02 in0.5 mm 0.00 in0.0 mm 0.07 in1.8 mm
01:45 AM 29.8°F-1.2°C 28.1°F-2.2°C 93% 11.0 mph ENE17.7 kmh ENE 21.0 mph33.8 kmh 30.21 in1023.0 mb 0.02 in0.5 mm 0.00 in0.0 mm 0.08 in2.0 mm
02:00 AM 29.8°F-1.2°C 28.1°F-2.2°C 93% 12.0 mph ENE19.3 kmh ENE 20.0 mph32.2 kmh 30.20 in1022.7 mb 0.02 in0.5 mm 0.00 in0.0 mm 0.09 in2.3 mm
02:15 AM 29.7°F-1.3°C 27.9°F-2.3°C 93% 11.0 mph E17.7 kmh E 23.0 mph37.0 kmh 30.19 in1022.4 mb 0.02 in0.5 mm 0.00 in0.0 mm 0.09 in2.3 mm
02:30 AM 30.0°F-1.1°C 28.2°F-2.1°C 93% 11.0 mph ENE17.7 kmh ENE 18.0 mph29.0 kmh 30.19 in1022.4 mb 0.02 in0.5 mm 0.00 in0.0 mm 0.09 in2.3 mm
02:45 AM 30.0°F-1.1°C 28.2°F-2.1°C 93% 11.0 mph E17.7 kmh E 22.0 mph35.4 kmh 30.19 in1022.4 mb 0.02 in0.5 mm 0.00 in0.0 mm 0.10 in2.5 mm
03:00 AM 29.8°F-1.2°C 28.1°F-2.2°C 93% 11.0 mph E17.7 kmh E 22.0 mph35.4 kmh 30.19 in1022.4 mb 0.02 in0.5 mm 0.00 in0.0 mm 0.10 in2.5 mm
03:15 AM 29.8°F-1.2°C 28.1°F-2.2°C 93% 13.0 mph ENE20.9 kmh ENE 26.0 mph41.8 kmh 30.19 in1022.4 mb 0.02 in0.5 mm 0.00 in0.0 mm 0.11 in2.8 mm
03:30 AM 30.0°F-1.1°C 28.2°F-2.1°C 93% 11.0 mph E17.7 kmh E 25.0 mph40.2 kmh 30.19 in1022.4 mb 0.02 in0.5 mm 0.00 in0.0 mm 0.12 in3.0 mm
03:45 AM 30.0°F-1.1°C 28.2°F-2.1°C 93% 13.0 mph ENE20.9 kmh ENE 23.0 mph37.0 kmh 30.19 in1022.4 mb 0.02 in0.5 mm 0.00 in0.0 mm 0.12 in3.0 mm
04:00 AM 29.8°F-1.2°C 28.1°F-2.2°C 93% 11.0 mph ENE17.7 kmh ENE 19.0 mph30.6 kmh 30.18 in1022.0 mb 0.02 in0.5 mm 0.00 in0.0 mm 0.13 in3.3 mm
04:15 AM 29.7°F-1.3°C 27.9°F-2.3°C 93% 13.0 mph E20.9 kmh E 25.0 mph40.2 kmh 30.17 in1021.7 mb 0.02 in0.5 mm 0.00 in0.0 mm 0.13 in3.3 mm
04:30 AM 29.7°F-1.3°C 27.9°F-2.3°C 93% 13.0 mph E20.9 kmh E 22.0 mph35.4 kmh 30.16 in1021.3 mb 0.02 in0.5 mm 0.00 in0.0 mm 0.13 in3.3 mm
04:45 AM 29.8°F-1.2°C 28.1°F-2.2°C 93% 12.0 mph E19.3 kmh E 22.0 mph35.4 kmh 30.15 in1021.0 mb 0.02 in0.5 mm 0.00 in0.0 mm 0.13 in3.3 mm
05:00 AM 29.8°F-1.2°C 28.1°F-2.2°C 93% 10.0 mph E16.1 kmh E 21.0 mph33.8 kmh 30.16 in1021.3 mb 0.01 in0.3 mm 0.00 in0.0 mm 0.13 in3.3 mm
05:15 AM 29.7°F-1.3°C 27.9°F-2.3°C 93% 9.0 mph E14.5 kmh E 18.0 mph29.0 kmh 30.14 in1020.7 mb 0.02 in0.5 mm 0.04 in1.0 mm 0.14 in3.6 mm
05:30 AM 29.7°F-1.3°C 27.9°F-2.3°C 93% 11.0 mph E17.7 kmh E 24.0 mph38.6 kmh 30.15 in1021.0 mb 0.02 in0.5 mm 0.00 in0.0 mm 0.15 in3.8 mm
05:45 AM 29.8°F-1.2°C 28.1°F-2.2°C 93% 10.0 mph E16.1 kmh E 23.0 mph37.0 kmh 30.14 in1020.7 mb 0.02 in0.5 mm 0.00 in0.0 mm 0.15 in3.8 mm
06:00 AM 29.8°F-1.2°C 28.1°F-2.2°C 93% 10.0 mph E16.1 kmh E 21.0 mph33.8 kmh 30.15 in1021.0 mb 0.02 in0.5 mm 0.00 in0.0 mm 0.16 in4.1 mm
06:15 AM 30.0°F-1.1°C 28.2°F-2.1°C 93% 9.0 mph E14.5 kmh E 19.0 mph30.6 kmh 30.15 in1021.0 mb 0.03 in0.8 mm 0.04 in1.0 mm 0.17 in4.3 mm
06:30 AM 30.2°F-1.0°C 28.4°F-2.0°C 93% 9.0 mph E14.5 kmh E 17.0 mph27.4 kmh 30.14 in1020.7 mb 0.03 in0.8 mm 0.00 in0.0 mm 0.18 in4.6 mm
06:45 AM 30.4°F-0.9°C 28.6°F-1.9°C 93% 10.0 mph E16.1 kmh E 16.0 mph25.7 kmh 30.14 in1020.7 mb 0.04 in1.0 mm 0.04 in1.0 mm 0.19 in4.8 mm
07:00 AM 30.7°F-0.7°C 29.0°F-1.7°C 93% 10.0 mph E16.1 kmh E 19.0 mph30.6 kmh 30.14 in1020.7 mb 0.04 in1.0 mm 0.00 in0.0 mm 0.20 in5.1 mm
07:15 AM 30.9°F-0.6°C 29.1°F-1.6°C 93% 11.0 mph ENE17.7 kmh ENE 24.0 mph38.6 kmh 30.14 in1020.7 mb 0.04 in1.0 mm 0.00 in0.0 mm 0.21 in5.3 mm
07:30 AM 31.1°F-0.5°C 29.6°F-1.3°C 94% 11.0 mph E17.7 kmh E 23.0 mph37.0 kmh 30.16 in1021.3 mb 0.03 in0.8 mm 0.00 in0.0 mm 0.21 in5.3 mm
07:45 AM 31.5°F-0.3°C 29.9°F-1.2°C 94% 8.0 mph ENE12.9 kmh ENE 14.0 mph22.5 kmh 30.12 in1020.0 mb 0.04 in1.0 mm 0.04 in1.0 mm 0.23 in5.8 mm
08:00 AM 31.6°F-0.2°C 30.1°F-1.1°C 94% 9.0 mph E14.5 kmh E 15.0 mph24.1 kmh 30.12 in1020.0 mb 0.06 in1.5 mm 0.03 in0.8 mm 0.25 in6.4 mm
08:15 AM 31.6°F-0.2°C 30.1°F-1.1°C 94% 10.0 mph E16.1 kmh E 25.0 mph40.2 kmh 30.13 in1020.3 mb 0.06 in1.5 mm 0.00 in0.0 mm 0.27 in6.9 mm
08:30 AM 31.8°F-0.1°C 30.3°F-0.9°C 94% 10.0 mph E16.1 kmh E 16.0 mph25.7 kmh 30.11 in1019.6 mb 0.07 in1.8 mm 0.04 in1.0 mm 0.28 in7.1 mm
08:45 AM 32.0°F0.0°C 30.5°F-0.8°C 94% 9.0 mph ENE14.5 kmh ENE 15.0 mph24.1 kmh 30.12 in1020.0 mb 0.08 in2.0 mm 0.04 in1.0 mm 0.31 in7.9 mm
09:00 AM 32.0°F0.0°C 30.5°F-0.8°C 94% 9.0 mph ENE14.5 kmh ENE 17.0 mph27.4 kmh 30.10 in1019.3 mb 0.07 in1.8 mm 0.00 in0.0 mm 0.32 in8.1 mm
09:15 AM 32.2°F0.1°C 30.6°F-0.8°C 94% 11.0 mph ENE17.7 kmh ENE 20.0 mph32.2 kmh 30.07 in1018.3 mb 0.07 in1.8 mm 0.00 in0.0 mm 0.34 in8.6 mm
09:30 AM 32.2°F0.1°C 30.6°F-0.8°C 94% 9.0 mph E14.5 kmh E 17.0 mph27.4 kmh 30.08 in1018.6 mb 0.06 in1.5 mm 0.00 in0.0 mm 0.35 in8.9 mm
09:45 AM 32.2°F0.1°C 30.6°F-0.8°C 94% 8.0 mph E12.9 kmh E 17.0 mph27.4 kmh 30.09 in1019.0 mb 0.05 in1.3 mm 0.00 in0.0 mm 0.35 in8.9 mm
10:00 AM 32.2°F0.1°C 30.6°F-0.8°C 94% 8.0 mph E12.9 kmh E 13.0 mph20.9 kmh 30.09 in1019.0 mb 0.05 in1.3 mm 0.00 in0.0 mm 0.37 in9.4 mm
10:15 AM 32.4°F0.2°C 30.8°F-0.7°C 94% 7.0 mph ENE11.3 kmh ENE 15.0 mph24.1 kmh 30.07 in1018.3 mb 0.04 in1.0 mm 0.00 in0.0 mm 0.38 in9.7 mm
10:30 AM 32.5°F0.3°C 31.0°F-0.6°C 94% 8.0 mph ENE12.9 kmh ENE 13.0 mph20.9 kmh 30.06 in1017.9 mb 0.05 in1.3 mm 0.04 in1.0 mm 0.39 in9.9 mm
10:45 AM 32.5°F0.3°C 31.0°F-0.6°C 94% 7.0 mph ENE11.3 kmh ENE 15.0 mph24.1 kmh 30.05 in1017.6 mb 0.06 in1.5 mm 0.04 in1.0 mm 0.41 in10.4 mm
11:00 AM 32.5°F0.3°C 31.0°F-0.6°C 94% 7.0 mph ENE11.3 kmh ENE 14.0 mph22.5 kmh 30.05 in1017.6 mb 0.05 in1.3 mm 0.00 in0.0 mm 0.42 in10.7 mm
11:15 AM 32.5°F0.3°C 31.0°F-0.6°C 94% 10.0 mph ENE16.1 kmh ENE 17.0 mph27.4 kmh 30.02 in1016.6 mb 0.05 in1.3 mm 0.00 in0.0 mm 0.43 in10.9 mm
11:30 AM 32.5°F0.3°C 31.0°F-0.6°C 94% 8.0 mph ENE12.9 kmh ENE 17.0 mph27.4 kmh 30.02 in1016.6 mb 0.05 in1.3 mm 0.00 in0.0 mm 0.44 in11.2 mm
11:45 AM 32.7°F0.4°C 31.2°F-0.4°C 94% 7.0 mph E11.3 kmh E 14.0 mph22.5 kmh 30.03 in1016.9 mb 0.03 in0.8 mm 0.00 in0.0 mm 0.44 in11.2 mm
12:00 PM 32.7°F0.4°C 31.2°F-0.4°C 94% 8.0 mph ENE12.9 kmh ENE 13.0 mph20.9 kmh 30.01 in1016.3 mb 0.03 in0.8 mm 0.00 in0.0 mm 0.45 in11.4 mm
12:15 PM 32.9°F0.5°C 31.4°F-0.3°C 94% 8.0 mph ENE12.9 kmh ENE 16.0 mph25.7 kmh 29.99 in1015.6 mb 0.02 in0.5 mm 0.00 in0.0 mm 0.46 in11.7 mm
12:30 PM 33.1°F0.6°C 31.5°F-0.3°C 94% 6.0 mph E9.7 kmh E 10.0 mph16.1 kmh 30.00 in1015.9 mb 0.02 in0.5 mm 0.00 in0.0 mm 0.46 in11.7 mm
12:45 PM 33.3°F0.7°C 31.7°F-0.2°C 94% 6.0 mph ENE9.7 kmh ENE 11.0 mph17.7 kmh 29.98 in1015.2 mb 0.03 in0.8 mm 0.04 in1.0 mm 0.47 in11.9 mm
01:00 PM 33.4°F0.8°C 31.9°F-0.1°C 94% 5.0 mph ENE8.0 kmh ENE 9.0 mph14.5 kmh 29.99 in1015.6 mb 0.03 in0.8 mm 0.00 in0.0 mm 0.48 in12.2 mm
01:15 PM 33.4°F0.8°C 31.9°F-0.1°C 94% 5.0 mph E8.0 kmh E 11.0 mph17.7 kmh 29.98 in1015.2 mb 0.02 in0.5 mm 0.00 in0.0 mm 0.48 in12.2 mm
01:30 PM 33.6°F0.9°C 32.1°F0.1°C 94% 5.0 mph E8.0 kmh E 13.0 mph20.9 kmh 29.98 in1015.2 mb 0.02 in0.5 mm 0.00 in0.0 mm 0.49 in12.4 mm
01:45 PM 33.6°F0.9°C 32.1°F0.1°C 94% 7.0 mph ENE11.3 kmh ENE 13.0 mph20.9 kmh 29.95 in1014.2 mb 0.03 in0.8 mm 0.04 in1.0 mm 0.50 in12.7 mm
02:00 PM 33.6°F0.9°C 32.1°F0.1°C 94% 9.0 mph E14.5 kmh E 14.0 mph22.5 kmh 29.93 in1013.5 mb 0.02 in0.5 mm 0.00 in0.0 mm 0.50 in12.7 mm
02:15 PM 33.6°F0.9°C 32.1°F0.1°C 94% 7.0 mph E11.3 kmh E 15.0 mph24.1 kmh 29.94 in1013.9 mb 0.03 in0.8 mm 0.04 in1.0 mm 0.51 in13.0 mm
02:30 PM 33.6°F0.9°C 32.1°F0.1°C 94% 6.0 mph E9.7 kmh E 11.0 mph17.7 kmh 29.94 in1013.9 mb 0.02 in0.5 mm 0.00 in0.0 mm 0.51 in13.0 mm
02:45 PM 33.4°F0.8°C 31.9°F-0.1°C 94% 6.0 mph E9.7 kmh E 12.0 mph19.3 kmh 29.92 in1013.2 mb 0.01 in0.3 mm 0.00 in0.0 mm 0.51 in13.0 mm
03:00 PM 33.4°F0.8°C 31.9°F-0.1°C 94% 6.0 mph E9.7 kmh E 13.0 mph20.9 kmh 29.92 in1013.2 mb 0.01 in0.3 mm 0.00 in0.0 mm 0.51 in13.0 mm
03:15 PM 33.6°F0.9°C 32.1°F0.1°C 94% 7.0 mph E11.3 kmh E 14.0 mph22.5 kmh 29.92 in1013.2 mb 0.00 in0.0 mm 0.00 in0.0 mm 0.51 in13.0 mm
03:30 PM 33.6°F0.9°C 32.1°F0.1°C 94% 6.0 mph E9.7 kmh E 12.0 mph19.3 kmh 29.91 in1012.9 mb 0.00 in0.0 mm 0.00 in0.0 mm 0.51 in13.0 mm
03:45 PM 33.6°F0.9°C 32.1°F0.1°C 94% 6.0 mph ENE9.7 kmh ENE 12.0 mph19.3 kmh 29.91 in1012.9 mb 0.01 in0.3 mm 0.04 in1.0 mm 0.52 in13.2 mm
04:00 PM 33.6°F0.9°C 32.1°F0.1°C 94% 5.0 mph ENE8.0 kmh ENE 10.0 mph16.1 kmh 29.90 in1012.5 mb 0.01 in0.3 mm 0.00 in0.0 mm 0.52 in13.2 mm
04:15 PM 33.6°F0.9°C 32.1°F0.1°C 94% 6.0 mph E9.7 kmh E 12.0 mph19.3 kmh 29.90 in1012.5 mb 0.02 in0.5 mm 0.04 in1.0 mm 0.53 in13.5 mm
04:30 PM 33.6°F0.9°C 32.1°F0.1°C 94% 8.0 mph ENE12.9 kmh ENE 13.0 mph20.9 kmh 29.89 in1012.2 mb 0.02 in0.5 mm 0.00 in0.0 mm 0.54 in13.7 mm
04:45 PM 33.6°F0.9°C 32.1°F0.1°C 94% 5.0 mph ENE8.0 kmh ENE 11.0 mph17.7 kmh 29.90 in1012.5 mb 0.02 in0.5 mm 0.00 in0.0 mm 0.54 in13.7 mm
05:00 PM 33.8°F1.0°C 32.3°F0.2°C 94% 6.0 mph ENE9.7 kmh ENE 12.0 mph19.3 kmh 29.88 in1011.9 mb 0.04 in1.0 mm 0.03 in0.8 mm 0.56 in14.2 mm
05:15 PM 34.0°F1.1°C 32.4°F0.2°C 94% 6.0 mph ENE9.7 kmh ENE 13.0 mph20.9 kmh 29.87 in1011.5 mb 0.04 in1.0 mm 0.00 in0.0 mm 0.57 in14.5 mm
05:30 PM 34.0°F1.1°C 32.4°F0.2°C 94% 7.0 mph E11.3 kmh E 12.0 mph19.3 kmh 29.86 in1011.2 mb 0.03 in0.8 mm 0.00 in0.0 mm 0.57 in14.5 mm
05:45 PM 34.2°F1.2°C 32.6°F0.3°C 94% 7.0 mph E11.3 kmh E 13.0 mph20.9 kmh 29.86 in1011.2 mb 0.03 in0.8 mm 0.00 in0.0 mm 0.57 in14.5 mm
06:00 PM 34.2°F1.2°C 32.6°F0.3°C 94% 8.0 mph E12.9 kmh E 16.0 mph25.7 kmh 29.85 in1010.8 mb 0.01 in0.3 mm 0.00 in0.0 mm 0.57 in14.5 mm
06:15 PM 34.2°F1.2°C 32.6°F0.3°C 94% 8.0 mph E12.9 kmh E 14.0 mph22.5 kmh 29.85 in1010.8 mb 0.00 in0.0 mm 0.00 in0.0 mm 0.57 in14.5 mm
06:30 PM 34.2°F1.2°C 32.6°F0.3°C 94% 8.0 mph E12.9 kmh E 14.0 mph22.5 kmh 29.84 in1010.5 mb 0.00 in0.0 mm 0.00 in0.0 mm 0.57 in14.5 mm
06:45 PM 34.3°F1.3°C 32.8°F0.4°C 94% 8.0 mph E12.9 kmh E 14.0 mph22.5 kmh 29.83 in1010.2 mb 0.00 in0.0 mm 0.00 in0.0 mm 0.57 in14.5 mm
07:00 PM 34.3°F1.3°C 32.8°F0.4°C 94% 8.0 mph E12.9 kmh E 14.0 mph22.5 kmh 29.83 in1010.2 mb 0.01 in0.3 mm 0.01 in0.3 mm 0.57 in14.5 mm
07:15 PM 34.3°F1.3°C 32.8°F0.4°C 94% 8.0 mph E12.9 kmh E 15.0 mph24.1 kmh 29.83 in1010.2 mb 0.02 in0.5 mm 0.04 in1.0 mm 0.58 in14.7 mm
07:30 PM 34.5°F1.4°C 33.0°F0.6°C 94% 8.0 mph E12.9 kmh E 16.0 mph25.7 kmh 29.83 in1010.2 mb 0.02 in0.5 mm 0.00 in0.0 mm 0.59 in15.0 mm
07:45 PM 34.5°F1.4°C 33.0°F0.6°C 94% 7.0 mph E11.3 kmh E 12.0 mph19.3 kmh 29.82 in1009.8 mb 0.04 in1.0 mm 0.08 in2.0 mm 0.61 in15.5 mm
08:00 PM 34.5°F1.4°C 33.0°F0.6°C 94% 7.0 mph E11.3 kmh E 11.0 mph17.7 kmh 29.81 in1009.5 mb 0.05 in1.3 mm 0.01 in0.3 mm 0.62 in15.7 mm
08:15 PM 34.5°F1.4°C 33.0°F0.6°C 94% 7.0 mph ENE11.3 kmh ENE 13.0 mph20.9 kmh 29.80 in1009.1 mb 0.06 in1.5 mm 0.04 in1.0 mm 0.64 in16.3 mm
08:30 PM 34.5°F1.4°C 33.0°F0.6°C 94% 6.0 mph E9.7 kmh E 12.0 mph19.3 kmh 29.81 in1009.5 mb 0.06 in1.5 mm 0.00 in0.0 mm 0.65 in16.5 mm
08:45 PM 34.7°F1.5°C 33.2°F0.7°C 94% 5.0 mph E8.0 kmh E 10.0 mph16.1 kmh 29.81 in1009.5 mb 0.07 in1.8 mm 0.04 in1.0 mm 0.68 in17.3 mm
09:00 PM 34.9°F1.6°C 33.3°F0.7°C 94% 6.0 mph E9.7 kmh E 11.0 mph17.7 kmh 29.80 in1009.1 mb 0.08 in2.0 mm 0.01 in0.3 mm 0.70 in17.8 mm
09:15 PM 35.1°F1.7°C 33.5°F0.8°C 94% 5.0 mph E8.0 kmh E 10.0 mph16.1 kmh 29.78 in1008.5 mb 0.09 in2.3 mm 0.04 in1.0 mm 0.73 in18.5 mm
09:30 PM 35.1°F1.7°C 33.5°F0.8°C 94% 6.0 mph E9.7 kmh E 9.0 mph14.5 kmh 29.78 in1008.5 mb 0.08 in2.0 mm 0.00 in0.0 mm 0.74 in18.8 mm
09:45 PM 35.2°F1.8°C 33.7°F0.9°C 94% 5.0 mph E8.0 kmh E 10.0 mph16.1 kmh 29.77 in1008.1 mb 0.06 in1.5 mm 0.00 in0.0 mm 0.74 in18.8 mm
10:00 PM 35.4°F1.9°C 33.9°F1.1°C 94% 4.0 mph E6.4 kmh E 9.0 mph14.5 kmh 29.75 in1007.5 mb 0.03 in0.8 mm 0.00 in0.0 mm 0.74 in18.8 mm
10:15 PM 35.4°F1.9°C 33.9°F1.1°C 94% 5.0 mph ENE8.0 kmh ENE 10.0 mph16.1 kmh 29.75 in1007.5 mb 0.02 in0.5 mm 0.00 in0.0 mm 0.75 in19.1 mm
10:30 PM 35.6°F2.0°C 34.0°F1.1°C 94% 4.0 mph ENE6.4 kmh ENE 10.0 mph16.1 kmh 29.75 in1007.5 mb 0.01 in0.3 mm 0.00 in0.0 mm 0.75 in19.1 mm
10:45 PM 35.8°F2.1°C 34.2°F1.2°C 94% 3.0 mph E4.8 kmh E 7.0 mph11.3 kmh 29.75 in1007.5 mb 0.02 in0.5 mm 0.04 in1.0 mm 0.76 in19.3 mm
11:00 PM 35.8°F2.1°C 34.2°F1.2°C 94% 2.0 mph E3.2 kmh E 7.0 mph11.3 kmh 29.75 in1007.5 mb 0.07 in1.8 mm 0.07 in1.8 mm 0.36 in9.1 mm
11:15 PM 35.8°F2.1°C 34.2°F1.2°C 94% 2.0 mph ENE3.2 kmh ENE 8.0 mph12.9 kmh 29.73 in1006.8 mb 0.12 in3.0 mm 0.20 in5.1 mm 0.06 in1.5 mm
11:30 PM 36.0°F2.2°C 34.4°F1.3°C 94% 3.0 mph ENE4.8 kmh ENE 5.0 mph8.0 kmh 29.73 in1006.8 mb 0.15 in3.8 mm 0.12 in3.0 mm 0.09 in2.3 mm
11:45 PM 36.0°F2.2°C 34.4°F1.3°C 94% 4.0 mph ENE6.4 kmh ENE 8.0 mph12.9 kmh 29.73 in1006.8 mb 0.15 in3.8 mm 0.00 in0.0 mm 0.09 in2.3 mm